createdAt,value
2019-01-18T00:00:57.866Z,98910.05
2019-01-18T00:03:26.142Z,98902.07
2019-01-18T00:05:54.961Z,98903.06
2019-01-18T00:08:58.641Z,98898.51
2019-01-18T00:11:26.471Z,98902.68
2019-01-18T00:13:54.320Z,98901.84
2019-01-18T00:16:22.145Z,98910.77
2019-01-18T00:18:50.079Z,98906.06
2019-01-18T00:21:17.893Z,98914.02
2019-01-18T00:23:45.712Z,98913.25
2019-01-18T00:26:13.509Z,98919.27
2019-01-18T00:28:41.505Z,98931.77
2019-01-18T00:31:09.255Z,98927.22
2019-01-18T00:33:37.066Z,98937.29
2019-01-18T00:36:05.689Z,98945.09
2019-01-18T00:38:33.803Z,98946.72
2019-01-18T00:41:01.598Z,98951.16
2019-01-18T00:43:29.418Z,98945.64
2019-01-18T00:45:57.211Z,98948.09
2019-01-18T00:48:25.127Z,98953.94
2019-01-18T00:50:52.929Z,98959.30
2019-01-18T00:53:20.775Z,98961.56
2019-01-18T00:55:48.606Z,98970.00
2019-01-18T00:58:21.452Z,98968.33
2019-01-18T01:00:49.244Z,98980.17
2019-01-18T01:03:17.137Z,98979.98
2019-01-18T01:05:44.943Z,98975.92
2019-01-18T01:08:27.860Z,98980.79
2019-01-18T01:10:55.770Z,98981.04
2019-01-18T01:13:23.681Z,98981.05
2019-01-18T01:15:51.494Z,98984.77
2019-01-18T01:18:34.557Z,98993.84
2019-01-18T01:21:02.827Z,98993.33
2019-01-18T01:23:30.603Z,98998.38
2019-01-18T01:25:59.350Z,99002.81
2019-01-18T01:28:27.210Z,99019.08
2019-01-18T01:30:55.834Z,99024.48
2019-01-18T01:33:23.759Z,99027.00
2019-01-18T01:35:52.179Z,99031.14
2019-01-18T01:38:19.985Z,99036.71
2019-01-18T01:40:47.806Z,99037.95
2019-01-18T01:43:15.669Z,99050.02
2019-01-18T01:45:43.470Z,99043.74
2019-01-18T01:48:11.439Z,99047.53
2019-01-18T01:50:39.293Z,99048.87
2019-01-18T01:53:07.139Z,99051.16
2019-01-18T01:55:34.985Z,99055.72
2019-01-18T01:58:08.044Z,99059.06
2019-01-18T02:00:36.081Z,99061.72
2019-01-18T02:03:03.896Z,99067.52
2019-01-18T02:05:31.728Z,99058.31
2019-01-18T02:07:59.547Z,99061.84
2019-01-18T02:10:27.443Z,99065.19
2019-01-18T02:12:55.284Z,99076.44
2019-01-18T02:15:26.754Z,99077.37
2019-01-18T02:17:55.072Z,99084.47
2019-01-18T02:20:23.454Z,99083.03
2019-01-18T02:22:52.026Z,99086.55
2019-01-18T02:25:20.399Z,99088.11
2019-01-18T02:27:58.792Z,99104.63
2019-01-18T02:30:28.377Z,99103.76
2019-01-18T02:32:56.187Z,99113.93
2019-01-18T02:35:23.960Z,99117.03
2019-01-18T02:37:52.183Z,99125.24
2019-01-18T02:40:19.969Z,99120.13
2019-01-18T02:42:47.770Z,99128.55
2019-01-18T02:45:18.368Z,99129.95
2019-01-18T02:47:46.146Z,99136.88
2019-01-18T02:50:13.914Z,99131.76
2019-01-18T02:52:41.749Z,99133.63
2019-01-18T02:55:10.485Z,99136.59
2019-01-18T02:57:38.326Z,99132.83
2019-01-18T03:00:19.111Z,99132.56
2019-01-18T03:02:47.261Z,99137.80
2019-01-18T03:05:17.167Z,99139.27
2019-01-18T03:07:49.997Z,99142.97
2019-01-18T03:10:21.843Z,99138.86
2019-01-18T03:12:49.592Z,99135.28
2019-01-18T03:15:17.377Z,99132.31
2019-01-18T03:17:45.301Z,99137.34
2019-01-18T03:20:14.315Z,99135.36
2019-01-18T03:22:42.108Z,99131.95
2019-01-18T03:25:14.276Z,99097.56
2019-01-18T03:27:42.189Z,99137.84
2019-01-18T03:30:19.121Z,99139.45
2019-01-18T03:32:43.104Z,99143.20
2019-01-18T03:35:12.989Z,99149.02
2019-01-18T03:37:45.842Z,99146.34
2019-01-18T03:40:15.145Z,99152.12
2019-01-18T03:42:43.331Z,99159.53
2019-01-18T03:45:13.804Z,99166.15
2019-01-18T03:47:46.927Z,99170.66
2019-01-18T03:50:18.845Z,99171.00
2019-01-18T03:52:46.633Z,99177.67
2019-01-18T03:55:14.538Z,99186.41
2019-01-18T03:57:42.340Z,99190.63
2019-01-18T04:00:30.055Z,99197.96
2019-01-18T04:02:57.802Z,99205.48
2019-01-18T04:05:29.507Z,99208.89
2019-01-18T04:07:55.901Z,99209.42
2019-01-18T04:10:23.740Z,99212.48
2019-01-18T04:12:51.513Z,99220.33
2019-01-18T04:15:21.184Z,99228.05
2019-01-18T04:17:49.185Z,99226.48
2019-01-18T04:20:17.716Z,99234.75
2019-01-18T04:22:45.497Z,99240.62
2019-01-18T04:25:17.096Z,99244.66
2019-01-18T04:28:07.113Z,99245.43
2019-01-18T04:30:35.013Z,99251.38
2019-01-18T04:33:13.265Z,99256.66
2019-01-18T04:35:41.057Z,99264.33
2019-01-18T04:38:08.929Z,99267.44
2019-01-18T04:40:36.824Z,99271.63
2019-01-18T04:43:04.543Z,99270.11
2019-01-18T04:45:32.355Z,99271.00
2019-01-18T04:48:31.641Z,99281.42
2019-01-18T04:50:59.438Z,99285.92
2019-01-18T04:53:27.235Z,99287.44
2019-01-18T04:55:55.051Z,99296.33
2019-01-18T04:58:28.074Z,99306.08
2019-01-18T05:01:15.286Z,99310.00
2019-01-18T05:03:43.073Z,99323.45
2019-01-18T05:06:10.853Z,99327.23
2019-01-18T05:08:39.186Z,99329.70
2019-01-18T05:11:06.923Z,99334.30
2019-01-18T05:13:34.761Z,99346.57
2019-01-18T05:16:04.481Z,99350.72
2019-01-18T05:18:32.177Z,99355.16
2019-01-18T05:21:00.035Z,99360.79
2019-01-18T05:23:27.845Z,99361.92
2019-01-18T05:25:55.621Z,99365.92
2019-01-18T05:28:23.431Z,99369.81
2019-01-18T05:30:51.169Z,99370.25
2019-01-18T05:33:18.987Z,99375.56
2019-01-18T05:35:46.797Z,99383.83
2019-01-18T05:38:14.644Z,99388.50
2019-01-18T05:40:42.496Z,99400.38
2019-01-18T05:43:10.304Z,99409.64
2019-01-18T05:45:38.057Z,99413.63
2019-01-18T05:48:06.036Z,99412.98
2019-01-18T05:50:33.915Z,99425.61
2019-01-18T05:53:04.920Z,99411.14
2019-01-18T05:55:32.740Z,99428.09
2019-01-18T05:58:00.882Z,99433.67
2019-01-18T06:00:46.297Z,99432.16
2019-01-18T06:03:14.124Z,99437.72
2019-01-18T06:05:43.191Z,99442.78
2019-01-18T06:08:20.114Z,99440.80
2019-01-18T06:10:47.903Z,99446.05
2019-01-18T06:13:15.737Z,99449.73
2019-01-18T06:15:43.468Z,99447.98
2019-01-18T06:18:11.495Z,99452.93
2019-01-18T06:20:39.377Z,99460.75
2019-01-18T06:23:07.123Z,99463.42
2019-01-18T06:25:34.952Z,99463.23
2019-01-18T06:28:11.340Z,99470.75
2019-01-18T06:30:39.335Z,99469.57
2019-01-18T06:33:07.208Z,99479.89
2019-01-18T06:35:35.025Z,99478.20
2019-01-18T06:38:03.054Z,99485.76
2019-01-18T06:40:30.936Z,99485.00
2019-01-18T06:42:58.738Z,99491.30
2019-01-18T06:45:27.750Z,99496.96
2019-01-18T06:47:55.557Z,99497.63
2019-01-18T06:50:23.340Z,99498.34
2019-01-18T06:52:51.149Z,99500.39
2019-01-18T06:55:18.974Z,99502.53
2019-01-18T06:57:46.788Z,99506.70
2019-01-18T07:00:22.238Z,99513.55
2019-01-18T07:02:50.042Z,99519.75
2019-01-18T07:05:17.844Z,99530.36
2019-01-18T07:07:45.669Z,99530.16
2019-01-18T07:10:20.686Z,99536.04
2019-01-18T07:12:44.998Z,99543.30
2019-01-18T07:15:14.122Z,99546.25
2019-01-18T07:17:41.955Z,99549.56
2019-01-18T07:20:12.541Z,99550.01
2019-01-18T07:22:40.867Z,99557.03
2019-01-18T07:25:23.996Z,99547.34
2019-01-18T07:28:02.391Z,99565.03
2019-01-18T07:30:43.897Z,99572.33
2019-01-18T07:33:14.560Z,99576.68
2019-01-18T07:35:42.439Z,99569.92
2019-01-18T07:41:12.005Z,99596.81
2019-01-18T07:43:42.480Z,99598.50
2019-01-18T07:46:11.495Z,99607.24
2019-01-18T07:48:39.399Z,99614.83
2019-01-18T07:51:07.171Z,99618.08
2019-01-18T07:53:35.028Z,99624.88
2019-01-18T07:56:02.804Z,99625.14
2019-01-18T07:59:15.840Z,99626.49
2019-01-18T08:01:43.600Z,99634.82
2019-01-18T08:04:11.380Z,99636.69
2019-01-18T08:06:39.171Z,99638.03
2019-01-18T08:09:08.065Z,99645.41
2019-01-18T08:11:35.933Z,99647.98
2019-01-18T08:14:04.205Z,99649.42
2019-01-18T08:16:31.990Z,99654.17
2019-01-18T08:18:59.732Z,99652.20
2019-01-18T08:21:27.587Z,99656.20
2019-01-18T08:23:55.396Z,99659.20
2019-01-18T08:26:23.211Z,99665.08
2019-01-18T08:29:45.790Z,99669.08
2019-01-18T08:32:13.540Z,99673.30
2019-01-18T08:34:41.322Z,99673.48
2019-01-18T08:37:09.275Z,99681.89
2019-01-18T08:39:37.106Z,99681.08
2019-01-18T08:42:04.900Z,99684.48
2019-01-18T08:44:32.646Z,99685.64
2019-01-18T08:47:10.514Z,99681.45
2019-01-18T08:49:38.323Z,99681.76
2019-01-18T08:52:25.624Z,99684.97
2019-01-18T08:54:53.428Z,99686.13
2019-01-18T08:57:21.270Z,99692.53
2019-01-18T08:59:49.046Z,99693.92
2019-01-18T09:02:16.825Z,99703.68
2019-01-18T09:04:44.663Z,99701.12
2019-01-18T09:07:12.423Z,99700.23
2019-01-18T09:09:40.212Z,99699.89
2019-01-18T09:12:07.958Z,99704.42
2019-01-18T09:14:36.767Z,99704.91
2019-01-18T09:17:04.556Z,99709.62
2019-01-18T09:19:32.320Z,99709.61
2019-01-18T09:22:00.098Z,99708.83
2019-01-18T09:24:27.921Z,99715.01
2019-01-18T09:27:05.762Z,99710.61
2019-01-18T09:29:33.566Z,99725.05
2019-01-18T09:32:01.350Z,99730.28
2019-01-18T09:34:29.180Z,99738.30
2019-01-18T09:36:57.028Z,99744.52
2019-01-18T09:39:24.825Z,99747.23
2019-01-18T09:41:52.634Z,99744.22
2019-01-18T09:44:20.464Z,99747.73
2019-01-18T09:46:48.223Z,99753.23
2019-01-18T09:49:16.012Z,99750.25
2019-01-18T09:51:43.823Z,99761.20
2019-01-18T09:54:11.628Z,99763.52
2019-01-18T09:56:39.415Z,99774.06
2019-01-18T09:59:07.217Z,99772.41
2019-01-18T10:01:35.006Z,99778.09
2019-01-18T10:04:02.869Z,99770.94
2019-01-18T10:06:30.692Z,99768.73
2019-01-18T10:08:58.466Z,99775.25
2019-01-18T10:11:26.322Z,99784.41
2019-01-18T10:13:54.156Z,99785.41
2019-01-18T10:16:21.950Z,99782.15
2019-01-18T10:19:25.760Z,99780.57
2019-01-18T10:21:53.562Z,99779.69
2019-01-18T10:24:21.381Z,99782.76
2019-01-18T10:26:54.195Z,99789.98
2019-01-18T10:29:28.018Z,99791.41
2019-01-18T10:31:55.994Z,99790.64
2019-01-18T10:34:21.387Z,99786.09
2019-01-18T10:37:39.119Z,99785.18
2019-01-18T10:40:07.517Z,99785.08
2019-01-18T10:42:35.478Z,99781.58
2019-01-18T10:45:04.852Z,99786.41
2019-01-18T10:47:32.783Z,99790.13
2019-01-18T10:50:00.588Z,99789.13
2019-01-18T10:52:28.362Z,99788.16
2019-01-18T10:54:56.133Z,99786.27
2019-01-18T10:57:23.890Z,99782.61
2019-01-18T10:59:51.729Z,99787.95
2019-01-18T11:02:19.550Z,99784.88
2019-01-18T11:04:47.346Z,99780.67
2019-01-18T11:07:15.126Z,99783.30
2019-01-18T11:09:43.005Z,99777.59
2019-01-18T11:12:10.810Z,99772.91
2019-01-18T11:14:38.611Z,99777.56
2019-01-18T11:17:06.354Z,99779.08
2019-01-18T11:19:34.156Z,99776.33
2019-01-18T11:22:01.964Z,99775.73
2019-01-18T11:24:29.802Z,99774.43
2019-01-18T11:27:02.620Z,99774.92
2019-01-18T11:29:30.432Z,99770.75
2019-01-18T11:31:58.238Z,99774.73
2019-01-18T11:34:26.005Z,99772.84
2019-01-18T11:36:56.507Z,99768.95
2019-01-18T11:39:23.612Z,99768.05
2019-01-18T11:41:51.472Z,99765.18
2019-01-18T11:44:19.293Z,99743.76
2019-01-18T11:46:47.116Z,99734.77
2019-01-18T11:49:14.867Z,99737.84
2019-01-18T11:51:42.712Z,99734.52
2019-01-18T11:54:29.924Z,99729.27
2019-01-18T11:56:57.932Z,99720.70
2019-01-18T11:59:25.681Z,99723.76
2019-01-18T12:01:53.514Z,99725.60
2019-01-18T12:04:21.294Z,99721.16
2019-01-18T12:06:49.114Z,99717.01
2019-01-18T12:09:16.944Z,99706.77
2019-01-18T12:11:44.756Z,99709.33
2019-01-18T12:14:12.563Z,99709.77
2019-01-18T12:16:40.361Z,99706.25
2019-01-18T12:19:10.006Z,99698.45
2019-01-18T12:21:37.885Z,99697.13
2019-01-18T12:24:08.151Z,99697.76
2019-01-18T12:26:35.924Z,99688.27
2019-01-18T12:29:04.151Z,99697.95
2019-01-18T12:31:32.061Z,99695.05
2019-01-18T12:33:59.829Z,99690.86
2019-01-18T12:36:27.630Z,99688.45
2019-01-18T12:38:55.432Z,99687.84
2019-01-18T12:41:23.253Z,99682.94
2019-01-18T12:43:51.270Z,99682.38
2019-01-18T12:46:19.102Z,99646.73
2019-01-18T12:48:48.896Z,99683.81
2019-01-18T12:51:16.821Z,99693.59
2019-01-18T12:53:50.924Z,99692.00
2019-01-18T12:56:18.697Z,99694.14
2019-01-18T12:58:46.712Z,99697.38
2019-01-18T13:01:14.594Z,99697.68
2019-01-18T13:03:42.530Z,99692.05
2019-01-18T13:06:10.738Z,99696.15
2019-01-18T13:08:40.790Z,99705.37
2019-01-18T13:11:08.643Z,99704.91
2019-01-18T13:13:38.926Z,99699.83
2019-01-18T13:16:34.890Z,99702.30
2019-01-18T13:19:10.058Z,99703.44
2019-01-18T13:21:38.121Z,99703.94
2019-01-18T13:24:05.994Z,99695.42
2019-01-18T13:26:36.887Z,99692.62
2019-01-18T13:29:04.845Z,99681.42
2019-01-18T13:31:32.701Z,99684.42
2019-01-18T13:34:03.108Z,99684.08
2019-01-18T13:36:30.803Z,99684.70
2019-01-18T13:38:58.704Z,99684.17
2019-01-18T13:41:30.989Z,99683.94
2019-01-18T13:43:59.290Z,99684.93
2019-01-18T13:46:27.247Z,99694.48
2019-01-18T13:48:55.186Z,99689.14
2019-01-18T13:51:23.409Z,99688.03
2019-01-18T13:53:51.236Z,99689.32
2019-01-18T13:56:19.035Z,99686.20
2019-01-18T13:58:46.923Z,99687.59
2019-01-18T14:01:14.957Z,99691.80
2019-01-18T14:03:43.156Z,99692.23
2019-01-18T14:06:11.009Z,99693.17
2019-01-18T14:08:38.846Z,99694.02
2019-01-18T14:11:15.813Z,99699.32
2019-01-18T14:13:43.674Z,99701.04
2019-01-18T14:16:12.068Z,99696.22
2019-01-18T14:18:39.993Z,99697.79
2019-01-18T14:21:07.874Z,99694.80
2019-01-18T14:23:36.054Z,99695.74
2019-01-18T14:26:04.102Z,99699.52
2019-01-18T14:28:32.078Z,99697.32
2019-01-18T14:30:59.864Z,99698.77
2019-01-18T14:33:27.634Z,99700.06
2019-01-18T14:35:55.435Z,99701.36
2019-01-18T14:38:25.142Z,99708.77
2019-01-18T14:40:52.998Z,99706.15
2019-01-18T14:43:21.054Z,99702.44
2019-01-18T14:45:49.294Z,99707.56
2019-01-18T14:48:17.532Z,99708.17
2019-01-18T14:50:45.425Z,99707.27
2019-01-18T14:53:13.363Z,99715.80
2019-01-18T14:55:41.137Z,99717.09
2019-01-18T14:58:14.443Z,99722.55
2019-01-18T15:00:42.789Z,99723.27
2019-01-18T15:03:11.374Z,99728.13
2019-01-18T15:05:39.835Z,99721.63
2019-01-18T15:08:13.647Z,99723.48
2019-01-18T15:10:42.630Z,99729.46
2019-01-18T15:13:16.436Z,99740.27
2019-01-18T15:15:44.190Z,99742.13
2019-01-18T15:18:14.938Z,99743.58
2019-01-18T15:20:44.121Z,99754.06
2019-01-18T15:23:17.330Z,99760.45
2019-01-18T15:25:45.171Z,99722.53
2019-01-18T15:28:13.021Z,99763.58
2019-01-18T15:30:41.643Z,99762.02
2019-01-18T15:33:09.668Z,99762.27
2019-01-18T15:35:38.485Z,99770.86
2019-01-18T15:38:08.844Z,99767.42
2019-01-18T15:40:41.369Z,99762.22
2019-01-18T15:43:18.796Z,99761.52
2019-01-18T15:45:48.623Z,99764.02
2019-01-18T15:48:21.944Z,99770.91
2019-01-18T15:50:49.752Z,99765.00
2019-01-18T15:53:20.634Z,99772.47
2019-01-18T15:55:49.434Z,99777.33
2019-01-18T15:58:18.556Z,99785.34
2019-01-18T16:00:55.467Z,99787.11
2019-01-18T16:03:51.648Z,99782.91
2019-01-18T16:06:24.839Z,99786.12
2019-01-18T16:08:52.717Z,99791.84
2019-01-18T16:11:22.762Z,99796.63
2019-01-18T16:13:54.724Z,99794.34
2019-01-18T16:16:43.325Z,99789.52
2019-01-18T16:19:11.447Z,99798.03
2019-01-18T16:21:42.489Z,99797.47
2019-01-18T16:24:10.350Z,99799.10
2019-01-18T16:26:38.436Z,99795.48
2019-01-18T16:29:06.245Z,99795.48
2019-01-18T16:31:34.064Z,99802.27
2019-01-18T16:34:02.483Z,99802.48
2019-01-18T16:36:30.279Z,99801.42
2019-01-18T16:38:59.848Z,99801.67
2019-01-18T16:41:34.142Z,99802.45
2019-01-18T16:44:02.091Z,99804.06
2019-01-18T16:46:32.418Z,99803.95
2019-01-18T16:49:03.214Z,99805.92
2019-01-18T16:51:31.345Z,99803.41
2019-01-18T16:53:59.648Z,99805.60
2019-01-18T16:56:27.995Z,99758.22
2019-01-18T16:59:00.869Z,99807.61
2019-01-18T17:01:28.721Z,99806.55
2019-01-18T17:03:59.596Z,99805.02
2019-01-18T17:06:29.327Z,99806.48
2019-01-18T17:08:57.995Z,99807.48
2019-01-18T17:11:28.644Z,99809.64
2019-01-18T17:13:56.675Z,99809.66
2019-01-18T17:16:24.546Z,99806.41
2019-01-18T17:18:52.422Z,99809.18
2019-01-18T17:21:20.806Z,99806.16
2019-01-18T17:23:48.654Z,99813.01
2019-01-18T17:26:17.028Z,99812.06
2019-01-18T17:28:44.866Z,99811.23
2019-01-18T17:31:12.709Z,99809.75
2019-01-18T17:33:40.591Z,99812.27
2019-01-18T17:36:40.424Z,99808.86
2019-01-18T17:39:29.404Z,99814.28
2019-01-18T17:42:50.381Z,99814.05
2019-01-18T17:46:40.532Z,99815.25
2019-01-18T17:49:56.592Z,99817.05
2019-01-18T17:53:25.096Z,99826.31
2019-01-18T17:56:46.083Z,99830.98
2019-01-18T18:00:09.475Z,99825.02
2019-01-18T18:02:55.832Z,99827.25
2019-01-18T18:06:36.375Z,99828.10
2019-01-18T18:09:21.285Z,99828.17
2019-01-18T18:12:38.589Z,99834.07
2019-01-18T18:15:42.849Z,99841.67
2019-01-18T18:19:19.053Z,99842.22
2019-01-18T18:22:43.506Z,99842.58
2019-01-18T18:26:18.817Z,99837.74
2019-01-18T18:29:42.213Z,99838.19
2019-01-18T18:32:44.738Z,99837.91
2019-01-18T18:36:11.480Z,99839.70
2019-01-18T18:39:45.109Z,99843.62
2019-01-18T18:43:09.693Z,99842.91
2019-01-18T18:46:26.221Z,99844.92
2019-01-18T18:49:30.039Z,99843.23
2019-01-18T18:52:41.487Z,99851.39
2019-01-18T18:56:12.220Z,99845.74
2019-01-18T18:59:36.327Z,99840.42
2019-01-18T19:03:09.338Z,99840.37
2019-01-18T19:06:45.746Z,99839.69
2019-01-18T19:10:16.961Z,99840.22
2019-01-18T19:13:48.069Z,99837.15
2019-01-18T19:17:27.621Z,99837.27
2019-01-18T19:20:47.127Z,99837.36
2019-01-18T19:24:25.231Z,99837.88
2019-01-18T19:27:46.058Z,99834.57
2019-01-18T19:31:09.709Z,99836.30
2019-01-18T19:34:25.343Z,99834.00
2019-01-18T19:38:04.495Z,99841.71
2019-01-18T19:41:20.287Z,99840.38
2019-01-18T19:44:22.083Z,99836.19
2019-01-18T19:47:18.638Z,99835.22
2019-01-18T19:51:05.053Z,99837.72
2019-01-18T19:54:29.433Z,99840.10
2019-01-18T19:57:16.395Z,99839.73
2019-01-18T20:00:35.909Z,99842.20
2019-01-18T20:03:32.518Z,99836.06
2019-01-18T20:07:15.394Z,99843.24
2019-01-18T20:10:36.079Z,99845.59
2019-01-18T20:13:43.071Z,99837.20
2019-01-18T20:16:52.811Z,99852.20
2019-01-18T20:20:10.070Z,99847.52
2019-01-18T20:23:44.183Z,99848.34
2019-01-18T20:26:35.378Z,99849.63
2019-01-18T20:30:09.283Z,99846.31
2019-01-18T20:33:33.878Z,99846.19
2019-01-18T20:36:44.822Z,99820.92
2019-01-18T20:40:38.235Z,99842.03
2019-01-18T20:43:51.229Z,99844.69
2019-01-18T20:47:48.346Z,99848.03
2019-01-18T20:51:18.229Z,99844.84
2019-01-18T20:55:15.532Z,99804.25
2019-01-18T20:59:08.835Z,99842.86
2019-01-18T21:02:32.942Z,99842.52
2019-01-18T21:06:10.337Z,99841.94
2019-01-18T21:09:16.610Z,99833.27
2019-01-18T21:12:17.153Z,99840.25
2019-01-18T21:15:34.143Z,99839.59
2019-01-18T21:18:32.713Z,99832.88
2019-01-18T21:21:48.086Z,99835.73
2019-01-18T21:25:10.246Z,99829.68
2019-01-18T21:28:24.561Z,99827.09
2019-01-18T21:31:59.782Z,99829.59
2019-01-18T21:35:15.281Z,99830.69
2019-01-18T21:38:30.762Z,99834.11
2019-01-18T21:42:11.623Z,99830.97
2019-01-18T21:45:28.993Z,99833.52
2019-01-18T21:48:53.657Z,99826.94
2019-01-18T21:52:15.901Z,99821.85
2019-01-18T21:55:40.687Z,99826.23
2019-01-18T21:59:02.734Z,99831.05
2019-01-18T22:02:02.615Z,99826.52
2019-01-18T22:05:06.872Z,99830.66
2019-01-18T22:08:29.076Z,99828.06
2019-01-18T22:12:15.095Z,99833.26
2019-01-18T22:15:20.091Z,99831.08
2019-01-18T22:19:01.297Z,99830.31
2019-01-18T22:22:37.404Z,99830.30
2019-01-18T22:26:17.424Z,99829.37
2019-01-18T22:29:49.783Z,99824.19
2019-01-18T22:33:14.361Z,99830.94
2019-01-18T22:36:33.149Z,99826.80
2019-01-18T22:39:56.875Z,99825.55
2019-01-18T22:43:12.475Z,99831.34
2019-01-18T22:46:11.150Z,99828.38
2019-01-18T22:49:02.552Z,99828.53
2019-01-18T22:52:28.842Z,99827.77
2019-01-18T22:55:56.431Z,99835.84
2019-01-18T22:59:31.236Z,99836.62
2019-01-18T23:03:02.465Z,99833.29
2019-01-18T23:05:48.846Z,99838.49
2019-01-18T23:09:32.983Z,99835.22
2019-01-18T23:12:52.581Z,99827.61
2019-01-18T23:16:45.938Z,99831.03
2019-01-18T23:20:21.645Z,99823.75
2019-01-18T23:23:57.311Z,99824.06
2019-01-18T23:27:19.975Z,99817.09
2019-01-18T23:30:34.233Z,99809.46
2019-01-18T23:33:44.456Z,99808.05
2019-01-18T23:36:36.117Z,99808.18
2019-01-18T23:40:10.240Z,99802.63
2019-01-18T23:43:29.453Z,99803.45
2019-01-18T23:47:05.201Z,99802.37
2019-01-18T23:50:17.749Z,99796.77
2019-01-18T23:53:24.971Z,99794.77
2019-01-18T23:56:58.813Z,99789.81
